sensor_id;sensor_type;location;lat;lon;timestamp;temperature;humidity
57833;DHT22;43667;53.036;6.740;2022-08-23T00:01:40;16.90;99.90
57833;DHT22;43667;53.036;6.740;2022-08-23T00:04:11;16.90;99.90
57833;DHT22;43667;53.036;6.740;2022-08-23T00:06:37;16.80;99.90
57833;DHT22;43667;53.036;6.740;2022-08-23T00:09:03;16.80;99.90
57833;DHT22;43667;53.036;6.740;2022-08-23T00:14:12;16.80;99.90
57833;DHT22;43667;53.036;6.740;2022-08-23T00:16:38;16.80;99.90
57833;DHT22;43667;53.036;6.740;2022-08-23T00:19:04;16.80;99.90
57833;DHT22;43667;53.036;6.740;2022-08-23T00:21:32;16.80;99.90
57833;DHT22;43667;53.036;6.740;2022-08-23T00:23:57;16.70;99.90
57833;DHT22;43667;53.036;6.740;2022-08-23T00:26:23;16.70;99.90
57833;DHT22;43667;53.036;6.740;2022-08-23T00:28:50;16.70;99.90
57833;DHT22;43667;53.036;6.740;2022-08-23T00:31:17;16.70;99.90
57833;DHT22;43667;53.036;6.740;2022-08-23T00:33:43;16.70;99.90
57833;DHT22;43667;53.036;6.740;2022-08-23T00:36:09;16.70;99.90
57833;DHT22;43667;53.036;6.740;2022-08-23T00:38:34;16.60;99.90
57833;DHT22;43667;53.036;6.740;2022-08-23T00:41:01;16.60;99.90
57833;DHT22;43667;53.036;6.740;2022-08-23T00:43:36;16.60;99.90
57833;DHT22;43667;53.036;6.740;2022-08-23T00:46:44;16.60;99.90
57833;DHT22;43667;53.036;6.740;2022-08-23T00:49:32;16.50;99.90
57833;DHT22;43667;53.036;6.740;2022-08-23T00:54:32;16.50;99.90
57833;DHT22;43667;53.036;6.740;2022-08-23T00:57:02;16.50;99.90
57833;DHT22;43667;53.036;6.740;2022-08-23T00:59:30;16.50;99.90
57833;DHT22;43667;53.036;6.740;2022-08-23T01:01:55;16.40;99.90
57833;DHT22;43667;53.036;6.740;2022-08-23T01:04:22;16.50;99.90
57833;DHT22;43667;53.036;6.740;2022-08-23T01:06:56;16.40;99.90
57833;DHT22;43667;53.036;6.740;2022-08-23T01:09:23;16.40;99.90
57833;DHT22;43667;53.036;6.740;2022-08-23T01:12:02;16.40;99.90
57833;DHT22;43667;53.036;6.740;2022-08-23T01:14:37;16.40;99.90
57833;DHT22;43667;53.036;6.740;2022-08-23T01:17:23;16.40;99.90
57833;DHT22;43667;53.036;6.740;2022-08-23T01:19:56;16.40;99.90
57833;DHT22;43667;53.036;6.740;2022-08-23T01:22:32;16.40;99.90
57833;DHT22;43667;53.036;6.740;2022-08-23T01:25:01;16.40;99.90
57833;DHT22;43667;53.036;6.740;2022-08-23T01:27:28;16.30;99.90
57833;DHT22;43667;53.036;6.740;2022-08-23T01:29:54;16.30;99.90
57833;DHT22;43667;53.036;6.740;2022-08-23T01:32:20;16.30;99.90
57833;DHT22;43667;53.036;6.740;2022-08-23T01:34:46;16.30;99.90
57833;DHT22;43667;53.036;6.740;2022-08-23T01:37:12;16.20;99.90
57833;DHT22;43667;53.036;6.740;2022-08-23T01:39:38;16.20;99.90
57833;DHT22;43667;53.036;6.740;2022-08-23T01:42:04;16.20;99.90
57833;DHT22;43667;53.036;6.740;2022-08-23T01:44:31;16.20;99.90
57833;DHT22;43667;53.036;6.740;2022-08-23T01:46:57;16.20;99.90
57833;DHT22;43667;53.036;6.740;2022-08-23T01:49:22;16.20;99.90
57833;DHT22;43667;53.036;6.740;2022-08-23T01:51:48;16.20;99.90
57833;DHT22;43667;53.036;6.740;2022-08-23T01:54:14;16.20;99.90
57833;DHT22;43667;53.036;6.740;2022-08-23T01:56:40;16.10;99.90
57833;DHT22;43667;53.036;6.740;2022-08-23T01:59:08;16.10;99.90
57833;DHT22;43667;53.036;6.740;2022-08-23T02:01:35;16.10;99.90
57833;DHT22;43667;53.036;6.740;2022-08-23T02:04:01;16.10;99.90
57833;DHT22;43667;53.036;6.740;2022-08-23T02:06:27;16.00;99.90
57833;DHT22;43667;53.036;6.740;2022-08-23T02:08:52;16.00;99.90
57833;DHT22;43667;53.036;6.740;2022-08-23T02:11:30;16.00;99.90
57833;DHT22;43667;53.036;6.740;2022-08-23T02:13:57;16.00;99.90
57833;DHT22;43667;53.036;6.740;2022-08-23T02:16:26;16.00;99.90
57833;DHT22;43667;53.036;6.740;2022-08-23T02:18:52;15.90;99.90
57833;DHT22;43667;53.036;6.740;2022-08-23T02:21:18;15.90;99.90
57833;DHT22;43667;53.036;6.740;2022-08-23T02:23:45;15.90;99.90
57833;DHT22;43667;53.036;6.740;2022-08-23T02:26:10;15.90;99.90
57833;DHT22;43667;53.036;6.740;2022-08-23T02:28:37;15.90;99.90
57833;DHT22;43667;53.036;6.740;2022-08-23T02:31:02;15.80;99.90
57833;DHT22;43667;53.036;6.740;2022-08-23T02:33:28;15.80;99.90
57833;DHT22;43667;53.036;6.740;2022-08-23T02:35:53;15.80;99.90
57833;DHT22;43667;53.036;6.740;2022-08-23T02:38:19;15.80;99.90
57833;DHT22;43667;53.036;6.740;2022-08-23T02:40:46;15.80;99.90
57833;DHT22;43667;53.036;6.740;2022-08-23T02:43:12;15.70;99.90
57833;DHT22;43667;53.036;6.740;2022-08-23T02:45:38;15.70;99.90
57833;DHT22;43667;53.036;6.740;2022-08-23T02:48:05;15.70;99.90
57833;DHT22;43667;53.036;6.740;2022-08-23T02:50:33;15.70;99.90
57833;DHT22;43667;53.036;6.740;2022-08-23T02:52:58;15.70;99.90
57833;DHT22;43667;53.036;6.740;2022-08-23T02:55:25;15.70;99.90
57833;DHT22;43667;53.036;6.740;2022-08-23T02:57:50;15.60;99.90
57833;DHT22;43667;53.036;6.740;2022-08-23T03:00:17;15.70;99.90
57833;DHT22;43667;53.036;6.740;2022-08-23T03:02:43;15.60;99.90
57833;DHT22;43667;53.036;6.740;2022-08-23T03:05:10;15.60;99.90
57833;DHT22;43667;53.036;6.740;2022-08-23T03:07:36;15.60;99.90
57833;DHT22;43667;53.036;6.740;2022-08-23T03:10:04;15.60;99.90
57833;DHT22;43667;53.036;6.740;2022-08-23T03:12:30;15.60;99.90
57833;DHT22;43667;53.036;6.740;2022-08-23T03:14:56;15.60;99.90
57833;DHT22;43667;53.036;6.740;2022-08-23T03:17:21;15.60;99.90
57833;DHT22;43667;53.036;6.740;2022-08-23T03:19:47;15.60;99.90
57833;DHT22;43667;53.036;6.740;2022-08-23T03:22:13;15.60;99.90
57833;DHT22;43667;53.036;6.740;2022-08-23T03:24:39;15.60;99.90
57833;DHT22;43667;53.036;6.740;2022-08-23T03:27:05;15.60;99.90
57833;DHT22;43667;53.036;6.740;2022-08-23T03:29:31;15.60;99.90
57833;DHT22;43667;53.036;6.740;2022-08-23T03:31:58;15.60;99.90
57833;DHT22;43667;53.036;6.740;2022-08-23T03:34:24;15.50;99.90
57833;DHT22;43667;53.036;6.740;2022-08-23T03:37:08;15.60;99.90
57833;DHT22;43667;53.036;6.740;2022-08-23T03:39:34;15.50;99.90
57833;DHT22;43667;53.036;6.740;2022-08-23T03:41:59;15.50;99.90
57833;DHT22;43667;53.036;6.740;2022-08-23T03:44:25;15.40;99.90
57833;DHT22;43667;53.036;6.740;2022-08-23T03:46:50;15.50;99.90
57833;DHT22;43667;53.036;6.740;2022-08-23T03:49:16;15.40;99.90
57833;DHT22;43667;53.036;6.740;2022-08-23T03:51:41;15.50;99.90
57833;DHT22;43667;53.036;6.740;2022-08-23T03:54:07;15.50;99.90
57833;DHT22;43667;53.036;6.740;2022-08-23T03:56:37;15.40;99.90
57833;DHT22;43667;53.036;6.740;2022-08-23T03:59:06;15.40;99.90
57833;DHT22;43667;53.036;6.740;2022-08-23T04:01:32;15.40;99.90
57833;DHT22;43667;53.036;6.740;2022-08-23T04:03:57;15.40;99.90
57833;DHT22;43667;53.036;6.740;2022-08-23T04:06:25;15.40;99.90
57833;DHT22;43667;53.036;6.740;2022-08-23T04:08:52;15.40;99.90
57833;DHT22;43667;53.036;6.740;2022-08-23T04:11:19;15.40;99.90
57833;DHT22;43667;53.036;6.740;2022-08-23T04:13:45;15.40;99.90
57833;DHT22;43667;53.036;6.740;2022-08-23T04:16:11;15.40;99.90
57833;DHT22;43667;53.036;6.740;2022-08-23T04:18:37;15.40;99.90
57833;DHT22;43667;53.036;6.740;2022-08-23T04:21:09;15.40;99.90
57833;DHT22;43667;53.036;6.740;2022-08-23T04:23:37;15.30;99.90
57833;DHT22;43667;53.036;6.740;2022-08-23T04:26:04;15.30;99.90
57833;DHT22;43667;53.036;6.740;2022-08-23T04:28:34;15.30;99.90
57833;DHT22;43667;53.036;6.740;2022-08-23T04:31:00;15.20;99.90
57833;DHT22;43667;53.036;6.740;2022-08-23T04:33:27;15.20;99.90
57833;DHT22;43667;53.036;6.740;2022-08-23T04:35:56;15.20;99.90
57833;DHT22;43667;53.036;6.740;2022-08-23T04:38:22;15.20;99.90
57833;DHT22;43667;53.036;6.740;2022-08-23T04:40:47;15.10;99.90
57833;DHT22;43667;53.036;6.740;2022-08-23T04:43:31;15.10;99.90
57833;DHT22;43667;53.036;6.740;2022-08-23T04:45:57;15.10;99.90
57833;DHT22;43667;53.036;6.740;2022-08-23T04:48:22;15.10;99.90
57833;DHT22;43667;53.036;6.740;2022-08-23T04:50:48;15.20;99.90
57833;DHT22;43667;53.036;6.740;2022-08-23T04:53:15;15.20;99.90
57833;DHT22;43667;53.036;6.740;2022-08-23T04:55:40;15.20;99.90
57833;DHT22;43667;53.036;6.740;2022-08-23T04:58:06;15.20;99.90
57833;DHT22;43667;53.036;6.740;2022-08-23T05:00:32;15.30;99.90
57833;DHT22;43667;53.036;6.740;2022-08-23T05:02:58;15.30;99.90
57833;DHT22;43667;53.036;6.740;2022-08-23T05:05:24;15.30;99.90
57833;DHT22;43667;53.036;6.740;2022-08-23T05:07:51;15.30;99.90
57833;DHT22;43667;53.036;6.740;2022-08-23T05:10:18;15.30;99.90
57833;DHT22;43667;53.036;6.740;2022-08-23T05:12:44;15.30;99.90
57833;DHT22;43667;53.036;6.740;2022-08-23T05:15:10;15.30;99.90
57833;DHT22;43667;53.036;6.740;2022-08-23T05:17:37;15.40;99.90
57833;DHT22;43667;53.036;6.740;2022-08-23T05:20:04;15.40;99.90
57833;DHT22;43667;53.036;6.740;2022-08-23T05:22:39;15.40;99.90
57833;DHT22;43667;53.036;6.740;2022-08-23T05:25:05;15.50;99.90
57833;DHT22;43667;53.036;6.740;2022-08-23T05:27:31;15.50;99.90
57833;DHT22;43667;53.036;6.740;2022-08-23T05:29:57;15.60;99.90
57833;DHT22;43667;53.036;6.740;2022-08-23T05:32:22;15.60;99.90
57833;DHT22;43667;53.036;6.740;2022-08-23T05:34:48;15.70;99.90
57833;DHT22;43667;53.036;6.740;2022-08-23T05:37:14;15.70;99.90
57833;DHT22;43667;53.036;6.740;2022-08-23T05:39:40;15.80;99.90
57833;DHT22;43667;53.036;6.740;2022-08-23T05:42:09;15.90;99.90
57833;DHT22;43667;53.036;6.740;2022-08-23T05:44:35;15.90;99.90
57833;DHT22;43667;53.036;6.740;2022-08-23T05:47:03;16.00;99.90
57833;DHT22;43667;53.036;6.740;2022-08-23T05:49:29;16.00;99.90
57833;DHT22;43667;53.036;6.740;2022-08-23T05:51:55;16.10;99.90
57833;DHT22;43667;53.036;6.740;2022-08-23T05:54:21;16.10;99.90
57833;DHT22;43667;53.036;6.740;2022-08-23T05:56:46;16.20;99.90
57833;DHT22;43667;53.036;6.740;2022-08-23T05:59:14;16.20;99.90
57833;DHT22;43667;53.036;6.740;2022-08-23T06:01:42;16.30;99.90
57833;DHT22;43667;53.036;6.740;2022-08-23T06:04:10;16.40;99.90
57833;DHT22;43667;53.036;6.740;2022-08-23T06:06:37;16.50;99.90
57833;DHT22;43667;53.036;6.740;2022-08-23T06:09:04;16.60;99.90
57833;DHT22;43667;53.036;6.740;2022-08-23T06:11:30;16.80;99.90
57833;DHT22;43667;53.036;6.740;2022-08-23T06:13:59;16.90;99.90
57833;DHT22;43667;53.036;6.740;2022-08-23T06:16:31;16.90;99.90
57833;DHT22;43667;53.036;6.740;2022-08-23T06:18:58;17.00;99.90
57833;DHT22;43667;53.036;6.740;2022-08-23T06:21:27;17.10;99.90
57833;DHT22;43667;53.036;6.740;2022-08-23T06:23:53;17.20;99.90
57833;DHT22;43667;53.036;6.740;2022-08-23T06:28:52;17.50;99.90
57833;DHT22;43667;53.036;6.740;2022-08-23T06:31:20;17.60;99.90
57833;DHT22;43667;53.036;6.740;2022-08-23T06:34:12;17.70;99.90
57833;DHT22;43667;53.036;6.740;2022-08-23T06:36:39;17.90;99.90
57833;DHT22;43667;53.036;6.740;2022-08-23T06:39:05;18.00;99.90
57833;DHT22;43667;53.036;6.740;2022-08-23T06:41:32;18.10;99.90
57833;DHT22;43667;53.036;6.740;2022-08-23T06:43:58;18.30;99.90
57833;DHT22;43667;53.036;6.740;2022-08-23T06:46:26;18.50;99.90
57833;DHT22;43667;53.036;6.740;2022-08-23T06:48:52;18.70;99.90
57833;DHT22;43667;53.036;6.740;2022-08-23T06:51:27;18.80;99.90
57833;DHT22;43667;53.036;6.740;2022-08-23T06:53:58;19.00;99.90
57833;DHT22;43667;53.036;6.740;2022-08-23T06:56:25;19.20;99.90
57833;DHT22;43667;53.036;6.740;2022-08-23T06:58:51;19.30;99.90
57833;DHT22;43667;53.036;6.740;2022-08-23T07:01:33;19.40;99.90
57833;DHT22;43667;53.036;6.740;2022-08-23T07:04:04;19.50;99.90
57833;DHT22;43667;53.036;6.740;2022-08-23T07:06:31;19.70;99.90
57833;DHT22;43667;53.036;6.740;2022-08-23T07:08:57;19.90;99.90
57833;DHT22;43667;53.036;6.740;2022-08-23T07:11:26;20.10;99.90
57833;DHT22;43667;53.036;6.740;2022-08-23T07:13:56;20.30;99.90
57833;DHT22;43667;53.036;6.740;2022-08-23T07:16:23;20.50;99.90
57833;DHT22;43667;53.036;6.740;2022-08-23T07:18:50;20.70;99.90
57833;DHT22;43667;53.036;6.740;2022-08-23T07:21:17;20.90;99.90
57833;DHT22;43667;53.036;6.740;2022-08-23T07:23:44;21.10;99.90
57833;DHT22;43667;53.036;6.740;2022-08-23T07:26:12;21.30;99.90
57833;DHT22;43667;53.036;6.740;2022-08-23T07:28:39;21.50;99.90
57833;DHT22;43667;53.036;6.740;2022-08-23T07:31:07;21.70;99.90
57833;DHT22;43667;53.036;6.740;2022-08-23T07:33:34;21.80;99.90
57833;DHT22;43667;53.036;6.740;2022-08-23T07:36:00;22.00;99.90
57833;DHT22;43667;53.036;6.740;2022-08-23T07:38:25;22.10;99.90
57833;DHT22;43667;53.036;6.740;2022-08-23T07:40:51;22.30;99.90
57833;DHT22;43667;53.036;6.740;2022-08-23T07:43:16;22.40;99.90
57833;DHT22;43667;53.036;6.740;2022-08-23T07:45:42;22.40;99.90
57833;DHT22;43667;53.036;6.740;2022-08-23T07:48:08;22.50;99.90
57833;DHT22;43667;53.036;6.740;2022-08-23T07:50:34;22.70;99.90
57833;DHT22;43667;53.036;6.740;2022-08-23T07:52:59;22.80;99.90
57833;DHT22;43667;53.036;6.740;2022-08-23T07:55:27;23.00;99.90
57833;DHT22;43667;53.036;6.740;2022-08-23T07:57:53;23.10;99.90
57833;DHT22;43667;53.036;6.740;2022-08-23T08:00:19;23.20;99.50
57833;DHT22;43667;53.036;6.740;2022-08-23T08:02:44;23.40;99.30
57833;DHT22;43667;53.036;6.740;2022-08-23T08:05:10;23.40;99.00
57833;DHT22;43667;53.036;6.740;2022-08-23T08:07:36;23.60;98.80
57833;DHT22;43667;53.036;6.740;2022-08-23T08:10:02;23.90;98.70
57833;DHT22;43667;53.036;6.740;2022-08-23T08:12:28;24.10;97.60
57833;DHT22;43667;53.036;6.740;2022-08-23T08:14:54;24.40;95.90
57833;DHT22;43667;53.036;6.740;2022-08-23T08:17:19;24.60;93.90
57833;DHT22;43667;53.036;6.740;2022-08-23T08:19:45;24.80;92.70
57833;DHT22;43667;53.036;6.740;2022-08-23T08:22:11;24.70;91.90
57833;DHT22;43667;53.036;6.740;2022-08-23T08:24:38;24.70;91.60
57833;DHT22;43667;53.036;6.740;2022-08-23T08:27:04;24.70;91.20
57833;DHT22;43667;53.036;6.740;2022-08-23T08:29:30;24.80;91.20
57833;DHT22;43667;53.036;6.740;2022-08-23T08:31:56;25.10;91.10
57833;DHT22;43667;53.036;6.740;2022-08-23T08:34:22;25.50;89.10
57833;DHT22;43667;53.036;6.740;2022-08-23T08:36:52;25.70;86.70
57833;DHT22;43667;53.036;6.740;2022-08-23T08:39:36;26.10;83.10
57833;DHT22;43667;53.036;6.740;2022-08-23T08:44:54;26.50;80.00
57833;DHT22;43667;53.036;6.740;2022-08-23T08:47:45;26.60;79.00
57833;DHT22;43667;53.036;6.740;2022-08-23T08:50:39;26.80;77.30
57833;DHT22;43667;53.036;6.740;2022-08-23T08:53:11;26.90;75.80
57833;DHT22;43667;53.036;6.740;2022-08-23T08:55:47;26.90;78.20
57833;DHT22;43667;53.036;6.740;2022-08-23T08:58:35;27.00;74.90
57833;DHT22;43667;53.036;6.740;2022-08-23T09:01:05;27.20;71.50
57833;DHT22;43667;53.036;6.740;2022-08-23T09:03:32;27.20;70.00
57833;DHT22;43667;53.036;6.740;2022-08-23T09:14:57;27.80;66.60
57833;DHT22;43667;53.036;6.740;2022-08-23T09:17:53;27.90;66.60
57833;DHT22;43667;53.036;6.740;2022-08-23T09:20:21;28.00;63.90
57833;DHT22;43667;53.036;6.740;2022-08-23T09:22:50;28.00;65.50
57833;DHT22;43667;53.036;6.740;2022-08-23T09:25:19;28.10;63.50
57833;DHT22;43667;53.036;6.740;2022-08-23T09:27:45;28.20;63.30
57833;DHT22;43667;53.036;6.740;2022-08-23T09:30:14;28.30;62.50
57833;DHT22;43667;53.036;6.740;2022-08-23T09:32:43;28.50;61.40
57833;DHT22;43667;53.036;6.740;2022-08-23T09:35:23;28.60;59.70
57833;DHT22;43667;53.036;6.740;2022-08-23T09:38:19;28.60;57.50
57833;DHT22;43667;53.036;6.740;2022-08-23T09:40:47;28.70;57.20
57833;DHT22;43667;53.036;6.740;2022-08-23T09:43:18;28.70;57.00
57833;DHT22;43667;53.036;6.740;2022-08-23T09:48:14;28.80;54.60
57833;DHT22;43667;53.036;6.740;2022-08-23T09:50:54;28.80;53.50
57833;DHT22;43667;53.036;6.740;2022-08-23T09:53:25;28.90;54.00
57833;DHT22;43667;53.036;6.740;2022-08-23T09:55:55;29.00;53.30
57833;DHT22;43667;53.036;6.740;2022-08-23T09:58:36;29.10;53.00
57833;DHT22;43667;53.036;6.740;2022-08-23T10:01:19;29.40;49.90
57833;DHT22;43667;53.036;6.740;2022-08-23T10:03:46;29.80;49.60
57833;DHT22;43667;53.036;6.740;2022-08-23T10:06:20;30.10;49.80
57833;DHT22;43667;53.036;6.740;2022-08-23T10:08:54;30.50;49.10
57833;DHT22;43667;53.036;6.740;2022-08-23T10:11:28;30.60;48.90
57833;DHT22;43667;53.036;6.740;2022-08-23T10:13:55;30.50;49.00
57833;DHT22;43667;53.036;6.740;2022-08-23T10:19:05;30.40;47.90
57833;DHT22;43667;53.036;6.740;2022-08-23T10:21:38;30.20;48.00
57833;DHT22;43667;53.036;6.740;2022-08-23T10:24:19;30.00;48.20
57833;DHT22;43667;53.036;6.740;2022-08-23T10:30:21;29.90;50.30
57833;DHT22;43667;53.036;6.740;2022-08-23T10:35:51;30.20;49.20
57833;DHT22;43667;53.036;6.740;2022-08-23T10:43:37;30.30;49.10
57833;DHT22;43667;53.036;6.740;2022-08-23T10:46:06;30.30;49.10
57833;DHT22;43667;53.036;6.740;2022-08-23T10:48:41;30.20;48.20
57833;DHT22;43667;53.036;6.740;2022-08-23T10:51:51;30.20;46.80
57833;DHT22;43667;53.036;6.740;2022-08-23T10:54:54;30.20;47.50
57833;DHT22;43667;53.036;6.740;2022-08-23T10:57:36;30.40;46.40
57833;DHT22;43667;53.036;6.740;2022-08-23T11:00:06;30.40;46.60
57833;DHT22;43667;53.036;6.740;2022-08-23T11:05:23;30.50;46.90
57833;DHT22;43667;53.036;6.740;2022-08-23T11:08:33;30.50;47.20
57833;DHT22;43667;53.036;6.740;2022-08-23T11:11:00;30.60;47.50
57833;DHT22;43667;53.036;6.740;2022-08-23T11:13:27;30.60;47.00
57833;DHT22;43667;53.036;6.740;2022-08-23T11:16:13;30.60;47.10
57833;DHT22;43667;53.036;6.740;2022-08-23T11:18:47;30.70;47.10
57833;DHT22;43667;53.036;6.740;2022-08-23T11:23:54;31.00;45.60
57833;DHT22;43667;53.036;6.740;2022-08-23T11:31:38;31.80;45.30
57833;DHT22;43667;53.036;6.740;2022-08-23T11:34:24;31.90;44.80
57833;DHT22;43667;53.036;6.740;2022-08-23T11:40:03;31.90;45.40
57833;DHT22;43667;53.036;6.740;2022-08-23T11:45:20;32.10;44.10
57833;DHT22;43667;53.036;6.740;2022-08-23T11:47:50;32.10;43.80
57833;DHT22;43667;53.036;6.740;2022-08-23T11:55:50;32.10;43.50
57833;DHT22;43667;53.036;6.740;2022-08-23T12:01:36;32.00;43.30
57833;DHT22;43667;53.036;6.740;2022-08-23T12:04:31;32.10;43.30
57833;DHT22;43667;53.036;6.740;2022-08-23T12:06:57;32.20;41.70
57833;DHT22;43667;53.036;6.740;2022-08-23T12:14:33;31.60;43.30
57833;DHT22;43667;53.036;6.740;2022-08-23T12:17:03;31.30;43.40
57833;DHT22;43667;53.036;6.740;2022-08-23T12:19:43;31.20;44.20
57833;DHT22;43667;53.036;6.740;2022-08-23T12:22:14;31.10;43.90
57833;DHT22;43667;53.036;6.740;2022-08-23T12:24:45;31.00;43.80
57833;DHT22;43667;53.036;6.740;2022-08-23T12:40:30;31.50;43.70
57833;DHT22;43667;53.036;6.740;2022-08-23T12:43:09;31.70;43.40
57833;DHT22;43667;53.036;6.740;2022-08-23T12:45:44;31.90;42.60
57833;DHT22;43667;53.036;6.740;2022-08-23T12:48:13;31.90;42.80
57833;DHT22;43667;53.036;6.740;2022-08-23T12:50:42;31.90;42.00
57833;DHT22;43667;53.036;6.740;2022-08-23T12:53:15;31.90;42.40
57833;DHT22;43667;53.036;6.740;2022-08-23T12:55:47;31.90;42.60
57833;DHT22;43667;53.036;6.740;2022-08-23T12:58:15;32.00;42.30
57833;DHT22;43667;53.036;6.740;2022-08-23T13:00:52;32.00;42.20
57833;DHT22;43667;53.036;6.740;2022-08-23T13:03:26;32.00;42.80
57833;DHT22;43667;53.036;6.740;2022-08-23T13:05:56;32.00;42.20
57833;DHT22;43667;53.036;6.740;2022-08-23T13:11:04;32.00;41.00
57833;DHT22;43667;53.036;6.740;2022-08-23T13:13:30;31.90;41.50
57833;DHT22;43667;53.036;6.740;2022-08-23T13:15:59;32.00;39.80
57833;DHT22;43667;53.036;6.740;2022-08-23T13:18:29;32.00;39.70
57833;DHT22;43667;53.036;6.740;2022-08-23T13:21:15;32.00;39.40
57833;DHT22;43667;53.036;6.740;2022-08-23T13:23:41;32.00;39.50
57833;DHT22;43667;53.036;6.740;2022-08-23T13:26:34;32.00;39.60
57833;DHT22;43667;53.036;6.740;2022-08-23T13:35:27;31.80;40.20
57833;DHT22;43667;53.036;6.740;2022-08-23T13:37:57;31.60;40.40
57833;DHT22;43667;53.036;6.740;2022-08-23T13:40:26;31.60;41.10
57833;DHT22;43667;53.036;6.740;2022-08-23T13:42:58;31.60;41.50
57833;DHT22;43667;53.036;6.740;2022-08-23T13:45:28;31.60;41.60
57833;DHT22;43667;53.036;6.740;2022-08-23T13:48:06;31.60;41.80
57833;DHT22;43667;53.036;6.740;2022-08-23T13:50:35;31.70;41.20
57833;DHT22;43667;53.036;6.740;2022-08-23T13:53:01;31.60;41.20
57833;DHT22;43667;53.036;6.740;2022-08-23T13:55:28;31.70;41.10
57833;DHT22;43667;53.036;6.740;2022-08-23T13:57:55;31.80;41.70
57833;DHT22;43667;53.036;6.740;2022-08-23T14:00:22;32.00;41.20
57833;DHT22;43667;53.036;6.740;2022-08-23T14:02:47;31.90;41.10
57833;DHT22;43667;53.036;6.740;2022-08-23T14:05:17;31.80;41.40
57833;DHT22;43667;53.036;6.740;2022-08-23T14:07:45;31.60;41.70
57833;DHT22;43667;53.036;6.740;2022-08-23T14:10:12;31.50;41.80
57833;DHT22;43667;53.036;6.740;2022-08-23T14:12:37;31.40;42.00
57833;DHT22;43667;53.036;6.740;2022-08-23T14:15:05;31.30;41.60
57833;DHT22;43667;53.036;6.740;2022-08-23T14:17:40;31.40;42.00
57833;DHT22;43667;53.036;6.740;2022-08-23T14:20:07;31.30;42.20
57833;DHT22;43667;53.036;6.740;2022-08-23T14:22:34;31.30;42.50
57833;DHT22;43667;53.036;6.740;2022-08-23T14:25:00;31.20;42.50
57833;DHT22;43667;53.036;6.740;2022-08-23T14:27:25;31.10;42.90
57833;DHT22;43667;53.036;6.740;2022-08-23T14:29:51;31.10;43.10
57833;DHT22;43667;53.036;6.740;2022-08-23T14:32:17;31.00;42.40
57833;DHT22;43667;53.036;6.740;2022-08-23T14:34:42;31.00;42.80
57833;DHT22;43667;53.036;6.740;2022-08-23T14:37:08;31.00;43.60
57833;DHT22;43667;53.036;6.740;2022-08-23T14:39:33;31.00;42.50
57833;DHT22;43667;53.036;6.740;2022-08-23T14:41:59;31.00;43.20
57833;DHT22;43667;53.036;6.740;2022-08-23T14:44:25;30.90;42.80
57833;DHT22;43667;53.036;6.740;2022-08-23T14:46:50;30.90;42.60
57833;DHT22;43667;53.036;6.740;2022-08-23T14:49:16;30.80;42.40
57833;DHT22;43667;53.036;6.740;2022-08-23T14:51:45;30.80;42.90
57833;DHT22;43667;53.036;6.740;2022-08-23T14:54:18;30.80;43.70
57833;DHT22;43667;53.036;6.740;2022-08-23T14:56:44;31.00;42.90
57833;DHT22;43667;53.036;6.740;2022-08-23T14:59:10;31.20;43.30
57833;DHT22;43667;53.036;6.740;2022-08-23T15:01:36;31.30;42.70
57833;DHT22;43667;53.036;6.740;2022-08-23T15:04:03;31.30;42.80
57833;DHT22;43667;53.036;6.740;2022-08-23T15:06:29;31.30;42.30
57833;DHT22;43667;53.036;6.740;2022-08-23T15:08:55;31.30;42.50
57833;DHT22;43667;53.036;6.740;2022-08-23T15:11:20;31.20;41.90
57833;DHT22;43667;53.036;6.740;2022-08-23T15:13:46;31.20;42.40
57833;DHT22;43667;53.036;6.740;2022-08-23T15:16:14;31.10;42.70
57833;DHT22;43667;53.036;6.740;2022-08-23T15:18:46;31.10;42.80
57833;DHT22;43667;53.036;6.740;2022-08-23T15:21:13;31.10;42.60
57833;DHT22;43667;53.036;6.740;2022-08-23T15:23:40;31.10;42.70
57833;DHT22;43667;53.036;6.740;2022-08-23T15:26:07;31.20;42.40
57833;DHT22;43667;53.036;6.740;2022-08-23T15:28:32;31.30;43.00
57833;DHT22;43667;53.036;6.740;2022-08-23T15:30:58;31.60;42.70
57833;DHT22;43667;53.036;6.740;2022-08-23T15:33:25;31.90;42.10
57833;DHT22;43667;53.036;6.740;2022-08-23T15:35:55;32.00;41.60
57833;DHT22;43667;53.036;6.740;2022-08-23T15:38:22;32.20;41.70
57833;DHT22;43667;53.036;6.740;2022-08-23T15:40:51;32.50;40.90
57833;DHT22;43667;53.036;6.740;2022-08-23T15:43:18;32.80;41.30
57833;DHT22;43667;53.036;6.740;2022-08-23T15:45:44;33.10;40.30
57833;DHT22;43667;53.036;6.740;2022-08-23T15:48:25;33.20;40.00
57833;DHT22;43667;53.036;6.740;2022-08-23T15:50:52;33.50;40.10
57833;DHT22;43667;53.036;6.740;2022-08-23T15:53:19;33.70;39.90
57833;DHT22;43667;53.036;6.740;2022-08-23T15:55:45;33.70;40.50
57833;DHT22;43667;53.036;6.740;2022-08-23T15:58:17;33.70;40.80
57833;DHT22;43667;53.036;6.740;2022-08-23T16:00:43;33.70;39.90
57833;DHT22;43667;53.036;6.740;2022-08-23T16:03:09;33.90;40.40
57833;DHT22;43667;53.036;6.740;2022-08-23T16:05:37;33.90;40.90
57833;DHT22;43667;53.036;6.740;2022-08-23T16:08:05;34.00;40.50
57833;DHT22;43667;53.036;6.740;2022-08-23T16:10:31;34.30;38.30
57833;DHT22;43667;53.036;6.740;2022-08-23T16:12:56;34.50;38.90
57833;DHT22;43667;53.036;6.740;2022-08-23T16:15:22;34.90;39.00
57833;DHT22;43667;53.036;6.740;2022-08-23T16:17:47;35.20;38.20
57833;DHT22;43667;53.036;6.740;2022-08-23T16:20:13;35.20;37.20
57833;DHT22;43667;53.036;6.740;2022-08-23T16:22:39;34.90;38.10
57833;DHT22;43667;53.036;6.740;2022-08-23T16:25:05;34.40;39.80
57833;DHT22;43667;53.036;6.740;2022-08-23T16:27:30;33.90;40.20
57833;DHT22;43667;53.036;6.740;2022-08-23T16:29:56;33.40;40.20
57833;DHT22;43667;53.036;6.740;2022-08-23T16:32:22;33.00;41.00
57833;DHT22;43667;53.036;6.740;2022-08-23T16:34:47;32.60;42.10
57833;DHT22;43667;53.036;6.740;2022-08-23T16:37:14;32.30;43.10
57833;DHT22;43667;53.036;6.740;2022-08-23T16:39:40;32.00;44.30
57833;DHT22;43667;53.036;6.740;2022-08-23T16:42:09;31.70;45.30
57833;DHT22;43667;53.036;6.740;2022-08-23T16:44:35;31.50;45.80
57833;DHT22;43667;53.036;6.740;2022-08-23T16:47:02;31.30;46.30
57833;DHT22;43667;53.036;6.740;2022-08-23T16:49:28;31.20;46.60
57833;DHT22;43667;53.036;6.740;2022-08-23T16:51:53;31.00;47.20
57833;DHT22;43667;53.036;6.740;2022-08-23T16:54:20;31.00;45.30
57833;DHT22;43667;53.036;6.740;2022-08-23T16:56:46;31.00;46.50
57833;DHT22;43667;53.036;6.740;2022-08-23T16:59:12;31.10;45.80
57833;DHT22;43667;53.036;6.740;2022-08-23T17:01:47;31.20;46.70
57833;DHT22;43667;53.036;6.740;2022-08-23T17:04:13;31.30;47.60
57833;DHT22;43667;53.036;6.740;2022-08-23T17:06:39;31.20;48.10
57833;DHT22;43667;53.036;6.740;2022-08-23T17:09:05;31.00;48.40
57833;DHT22;43667;53.036;6.740;2022-08-23T17:11:31;30.80;49.10